Humidity-temperature Sensor

Selected Measurement Type: Relative Humidity

 
Relative Humidity [%]     6 entries per hour
Showing data from 11/21/2021 (00:00:00 Z) to 11/18/2021 (00:01:00 Z)
Previous Next [ Day | 3-Days | 7-Days ]
First Last
Prev [ Day | 3-Days | 7-Days ] Next
First Last

Start Time:     :
End Time:     :     
Time (in GMT) :00 :50 :40 :30 :20 :10
Previous Next [ Day | 3-Days | 7-Days ]
First Last
Prev [ Day | 3-Days | 7-Days ] Next
First Last


123 => good data
MM => data is determined as missing
-- => data not received/configured
Back to Top Back to Top
11/21/2021 00:00 to 23:10 91.44 91.30 90.95 91.04 91.10 91.20
11/20/2021 23:00 to 22:10 91.24 91.50 91.40 91.42 91.52 91.12
11/20/2021 22:00 to 21:10 90.91 91.08 91.28 91.30 91.04 90.87
11/20/2021 21:00 to 20:10 90.71 90.83 90.87 91.00 91.28 91.50
11/20/2021 20:00 to 19:10 91.42 91.56 91.48 91.76 91.76 91.62
11/20/2021 19:00 to 18:10 92.03 91.74 91.78 91.96 91.84 91.54
11/20/2021 18:00 to 17:10 91.52 91.36 91.34 91.54 91.44 91.28
11/20/2021 17:00 to 16:10 90.85 90.65 90.29 90.33 90.47 90.41
11/20/2021 16:00 to 15:10 90.77 90.87 90.61 90.61 90.29 90.53
11/20/2021 15:00 to 14:10 90.43 90.13 90.13 90.01 90.21 91.02
11/20/2021 14:00 to 13:10 91.06 91.16 91.34 92.07 92.55 93.08
11/20/2021 13:00 to 12:10 93.38 93.12 93.64 94.00 94.35 94.21
11/20/2021 12:00 to 11:10 94.21 94.31 94.35 94.09 93.98 93.84
11/20/2021 11:00 to 10:10 93.82 93.70 93.54 93.50 93.60 93.58
11/20/2021 10:00 to 9:10 93.84 94.07 93.92 94.13 94.09 94.25
11/20/2021 09:00 to 8:10 94.09 94.13 93.94 93.88 93.92 94.15
11/20/2021 08:00 to 7:10 94.25 94.69 94.69 94.67 94.59 94.63
11/20/2021 07:00 to 6:10 94.67 94.47 94.69 94.53 94.31 94.19
11/20/2021 06:00 to 5:10 94.47 94.43 94.43 94.39 94.19 94.04
11/20/2021 05:00 to 4:10 93.98 93.92 93.82 93.56 93.32 92.87
11/20/2021 04:00 to 3:10 92.87 92.57 92.59 92.63 92.51 92.41
11/20/2021 03:00 to 2:10 92.47 91.98 91.82 91.70 91.82 91.90
11/20/2021 02:00 to 1:10 91.40 91.32 91.16 91.10 90.89 90.43
11/20/2021 01:00 to 0:10 89.90 89.56 89.20 88.55 88.07 88.05
11/20/2021 00:00 to 23:10 88.33 88.67 88.61 88.71 88.47 88.83
11/19/2021 23:00 to 22:10 88.83 88.81 88.73 88.71 88.93 89.10
11/19/2021 22:00 to 21:10 89.04 88.79 88.91 88.67 89.08 89.32
11/19/2021 21:00 to 20:10 89.48 89.70 90.17 90.35 90.01 88.98
11/19/2021 20:00 to 19:10 87.72 86.77 87.48 89.20 90.73 90.97
11/19/2021 19:00 to 18:10 90.81 90.75 90.47 90.53 90.77 90.57
11/19/2021 18:00 to 17:10 90.71 90.35 90.47 90.15 89.88 89.52
11/19/2021 17:00 to 16:10 89.66 89.72 89.56 89.42 88.93 88.71
11/19/2021 16:00 to 15:10 88.25 87.26 86.53 87.66 87.54 87.14
11/19/2021 15:00 to 14:10 87.24 87.60 88.05 88.13 87.74 87.16
11/19/2021 14:00 to 13:10 86.23 84.81 85.20 86.19 87.78 88.71
11/19/2021 13:00 to 12:10 89.38 90.01 90.07 89.84 89.82 89.99
11/19/2021 12:00 to 11:10 90.27 90.31 90.01 89.32 89.14 88.93
11/19/2021 11:00 to 10:10 88.75 88.19 87.54 87.40 87.34 87.74
11/19/2021 10:00 to 9:10 88.13 87.80 87.48 86.65 88.33 89.38
11/19/2021 09:00 to 8:10 90.57 92.35 92.95 92.83 92.67 92.21
11/19/2021 08:00 to 7:10 91.96 91.86 91.74 91.54 91.40 91.24
11/19/2021 07:00 to 6:10 90.87 91.38 92.65 92.61 92.35 92.15
11/19/2021 06:00 to 5:10 92.07 91.74 91.48 91.26 90.85 90.43
11/19/2021 05:00 to 4:10 90.27 90.35 90.09 89.40 88.98 88.55
11/19/2021 04:00 to 3:10 88.53 88.59 88.61 88.75 89.38 89.26
11/19/2021 03:00 to 2:10 89.02 88.57 88.85 89.10 89.14 88.73
11/19/2021 02:00 to 1:10 88.43 87.99 87.72 87.44 87.00 86.81
11/19/2021 01:00 to 0:10 86.51 85.78 85.10 84.85 84.19 83.50
11/19/2021 00:00 to 23:10 83.18 83.22 83.00 82.59 82.47 82.69
11/18/2021 23:00 to 22:10 82.98 82.77 82.17 81.81 82.19 82.01
11/18/2021 22:00 to 21:10 82.51 82.75 83.18 82.21 81.62 81.30
11/18/2021 21:00 to 20:10 80.82 79.87 79.56 78.88 79.00 78.45
11/18/2021 20:00 to 19:10 79.50 80.13 81.60 82.23 83.48 85.24
11/18/2021 19:00 to 18:10 87.14 88.31 88.81 87.64 82.47 83.70
11/18/2021 18:00 to 17:10 86.57 86.73 86.83 87.14 86.85 85.97
11/18/2021 17:00 to 16:10 85.20 84.73 84.45 84.55 84.57 86.17
11/18/2021 16:00 to 15:10 84.57 84.13 85.66 85.82 85.66 85.80
11/18/2021 15:00 to 14:10 85.18 85.04 85.48 86.83 86.51 87.36
11/18/2021 14:00 to 13:10 87.34 86.41 86.87 87.32 87.93 88.53
11/18/2021 13:00 to 12:10 88.87 89.14 89.00 88.81 88.51 89.12
11/18/2021 12:00 to 11:10 89.14 89.14 88.91 88.79 88.63 88.63
11/18/2021 11:00 to 10:10 88.73 88.29 88.37 88.11 88.03 88.13
11/18/2021 10:00 to 9:10 87.90 87.50 87.76 88.25 88.67 88.47
11/18/2021 09:00 to 8:10 88.27 87.95 87.48 87.42 87.68 88.19
11/18/2021 08:00 to 7:10 87.95 87.95 88.21 87.86 87.58 87.48
11/18/2021 07:00 to 6:10 86.98 86.77 86.25 86.81 86.98 86.43
11/18/2021 06:00 to 5:10 86.41 86.17 86.29 86.55 86.31 86.15
11/18/2021 05:00 to 4:10 86.49 86.83 86.98 87.26 87.16 86.85
11/18/2021 04:00 to 3:10 86.67 86.61 86.35 86.63 87.06 87.28
11/18/2021 03:00 to 2:10 87.00 86.81 86.71 86.83 86.61 86.25
11/18/2021 02:00 to 1:10 85.76 85.74 84.94 84.77 84.17 82.98
11/18/2021 01:00 to 0:10 82.51 82.11 82.27 81.72 81.64 81.44